createdAt,value
2019-02-20T00:01:31.317Z,31.15
2019-02-20T00:04:00.710Z,22.82
2019-02-20T00:06:30.096Z,30.05
2019-02-20T00:08:59.516Z,26.12
2019-02-20T00:11:28.908Z,19.75
2019-02-20T00:13:58.314Z,23.40
2019-02-20T00:16:27.715Z,24.75
2019-02-20T00:18:57.122Z,25.43
2019-02-20T00:21:26.542Z,20.92
2019-02-20T00:23:55.933Z,24.57
2019-02-20T00:26:25.327Z,28.40
2019-02-20T00:28:54.717Z,28.38
2019-02-20T00:31:24.129Z,33.88
2019-02-20T00:33:53.567Z,25.90
2019-02-20T00:36:22.932Z,22.82
2019-02-20T00:38:52.332Z,25.90
2019-02-20T00:41:21.737Z,32.03
2019-02-20T00:43:52.838Z,33.98
2019-02-20T00:46:23.859Z,32.42
2019-02-20T00:48:54.884Z,26.20
2019-02-20T00:51:35.073Z,26.25
2019-02-20T00:54:06.296Z,36.20
2019-02-20T00:56:35.684Z,31.05
2019-02-20T00:59:05.079Z,31.80
2019-02-20T01:01:34.507Z,28.10
2019-02-20T01:04:04.476Z,27.80
2019-02-20T01:06:33.875Z,32.33
2019-02-20T01:09:03.304Z,37.80
2019-02-20T01:11:32.696Z,32.65
2019-02-20T01:14:02.109Z,27.22
2019-02-20T01:16:31.503Z,32.55
2019-02-20T01:19:00.907Z,32.00
2019-02-20T01:21:30.312Z,28.47
2019-02-20T01:23:59.722Z,26.15
2019-02-20T01:26:29.117Z,33.50
2019-02-20T01:28:58.516Z,36.05
2019-02-20T01:31:27.954Z,31.68
2019-02-20T01:33:57.364Z,32.42
2019-02-20T01:36:26.757Z,35.28
2019-02-20T01:38:56.158Z,27.50
2019-02-20T01:41:25.559Z,31.33
2019-02-20T01:43:54.965Z,34.30
2019-02-20T01:46:24.444Z,31.82
2019-02-20T01:48:53.870Z,35.30
2019-02-20T01:51:23.293Z,31.82
2019-02-20T01:53:52.671Z,32.95
2019-02-20T01:56:22.090Z,33.65
2019-02-20T01:58:51.482Z,30.05
2019-02-20T02:01:20.892Z,32.85
2019-02-20T02:03:50.376Z,26.95
2019-02-20T02:06:19.774Z,31.37
2019-02-20T02:08:49.246Z,36.68
2019-02-20T02:11:18.661Z,28.87
2019-02-20T02:13:48.069Z,26.82
2019-02-20T02:16:17.472Z,31.77
2019-02-20T02:18:46.891Z,30.00
2019-02-20T02:21:16.279Z,33.85
2019-02-20T02:23:47.623Z,31.15
2019-02-20T02:26:16.732Z,28.52
2019-02-20T02:28:46.154Z,29.90
2019-02-20T02:31:15.569Z,29.15
2019-02-20T02:33:44.989Z,27.73
2019-02-20T02:36:14.480Z,27.90
2019-02-20T02:38:43.895Z,30.35
2019-02-20T02:41:13.340Z,29.57
2019-02-20T02:43:42.748Z,27.42
2019-02-20T02:46:12.151Z,30.02
2019-02-20T02:48:41.671Z,35.33
2019-02-20T02:51:11.109Z,29.20
2019-02-20T02:53:40.568Z,32.63
2019-02-20T02:56:10.005Z,27.27
2019-02-20T02:58:39.453Z,31.23
2019-02-20T03:01:08.827Z,38.58
2019-02-20T03:03:38.271Z,31.27
2019-02-20T03:06:07.629Z,31.33
2019-02-20T03:08:37.036Z,31.85
2019-02-20T03:11:06.453Z,28.83
2019-02-20T03:13:35.860Z,32.25
2019-02-20T03:16:05.324Z,37.28
2019-02-20T03:18:34.727Z,34.80
2019-02-20T03:21:04.150Z,33.75
2019-02-20T03:23:40.002Z,32.25
2019-02-20T03:26:04.570Z,33.18
2019-02-20T03:28:33.969Z,36.40
2019-02-20T03:31:03.372Z,36.38
2019-02-20T03:33:32.777Z,37.40
2019-02-20T03:36:02.176Z,34.23
2019-02-20T03:38:31.580Z,40.30
2019-02-20T03:41:00.979Z,36.23
2019-02-20T03:43:30.453Z,36.23
2019-02-20T03:45:59.884Z,35.65
2019-02-20T03:48:29.289Z,39.23
2019-02-20T03:50:58.723Z,33.92
2019-02-20T03:53:28.153Z,34.88
2019-02-20T03:55:57.575Z,35.28
2019-02-20T03:58:26.973Z,37.40
2019-02-20T04:00:56.385Z,32.95
2019-02-20T04:03:25.824Z,37.10
2019-02-20T04:05:55.349Z,31.73
2019-02-20T04:08:24.801Z,35.00
2019-02-20T04:10:54.201Z,35.20
2019-02-20T04:13:23.595Z,36.60
2019-02-20T04:15:53.107Z,39.70
2019-02-20T04:18:22.500Z,33.60
2019-02-20T04:20:51.888Z,34.15
2019-02-20T04:23:21.328Z,37.78
2019-02-20T04:25:50.759Z,32.35
2019-02-20T04:28:20.169Z,38.88
2019-02-20T04:30:49.599Z,35.05
2019-02-20T04:33:19.068Z,37.05
2019-02-20T04:35:48.495Z,37.65
2019-02-20T04:38:17.912Z,37.88
2019-02-20T04:40:47.337Z,34.75
2019-02-20T04:43:16.815Z,29.57
2019-02-20T04:45:46.272Z,31.82
2019-02-20T04:48:15.680Z,31.70
2019-02-20T04:50:45.096Z,36.60
2019-02-20T04:53:14.499Z,39.13
2019-02-20T04:55:43.920Z,32.48
2019-02-20T04:58:23.056Z,34.88
2019-02-20T05:00:52.523Z,42.23
2019-02-20T05:03:23.208Z,32.15
2019-02-20T05:05:52.779Z,37.70
2019-02-20T05:08:22.203Z,39.30
2019-02-20T05:10:51.611Z,34.85
2019-02-20T05:13:21.012Z,36.70
2019-02-20T05:15:50.449Z,36.70
2019-02-20T05:18:19.871Z,39.03
2019-02-20T05:20:49.302Z,33.75
2019-02-20T05:23:18.695Z,36.80
2019-02-20T05:25:48.113Z,44.42
2019-02-20T05:28:17.557Z,40.55
2019-02-20T05:30:46.980Z,33.18
2019-02-20T05:33:16.443Z,36.80
2019-02-20T05:35:45.879Z,35.28
2019-02-20T05:38:15.273Z,39.83
2019-02-20T05:40:44.711Z,36.48
2019-02-20T05:43:14.170Z,33.02
2019-02-20T05:45:43.615Z,39.98
2019-02-20T05:48:13.179Z,38.98
2019-02-20T05:50:42.605Z,40.20
2019-02-20T05:53:12.071Z,39.40
2019-02-20T05:55:41.529Z,45.28
2019-02-20T05:58:10.922Z,48.33
2019-02-20T06:00:40.342Z,36.65
2019-02-20T06:03:09.757Z,42.40
2019-02-20T06:05:39.144Z,47.40
2019-02-20T06:08:08.557Z,43.87
2019-02-20T06:10:37.972Z,39.60
2019-02-20T06:13:07.372Z,49.90
2019-02-20T06:15:36.853Z,43.52
2019-02-20T06:18:06.221Z,47.25
2019-02-20T06:20:35.643Z,44.38
2019-02-20T06:23:05.086Z,40.52
2019-02-20T06:25:34.468Z,46.55
2019-02-20T06:28:03.931Z,40.90
2019-02-20T06:30:33.451Z,45.10
2019-02-20T06:33:02.862Z,41.83
2019-02-20T06:35:32.324Z,44.35
2019-02-20T06:38:01.760Z,46.02
2019-02-20T06:40:31.268Z,44.93
2019-02-20T06:43:00.657Z,45.95
2019-02-20T06:45:30.063Z,50.10
2019-02-20T06:47:59.468Z,47.10
2019-02-20T06:50:28.877Z,43.23
2019-02-20T06:52:58.271Z,44.88
2019-02-20T06:55:27.676Z,44.53
2019-02-20T06:57:57.076Z,46.28
2019-02-20T07:00:26.795Z,51.00
2019-02-20T07:02:56.186Z,44.80
2019-02-20T07:05:30.744Z,48.30
2019-02-20T07:08:37.897Z,50.80
2019-02-20T07:11:34.309Z,46.58
2019-02-20T07:14:24.590Z,46.23
2019-02-20T07:17:09.136Z,47.62
2019-02-20T07:19:50.677Z,51.55
2019-02-20T07:22:54.741Z,47.23
2019-02-20T07:28:09.385Z,47.17
2019-02-20T07:30:40.464Z,50.30
2019-02-20T07:33:09.864Z,41.92
2019-02-20T07:35:39.256Z,43.00
2019-02-20T07:38:08.671Z,45.70
2019-02-20T07:40:38.102Z,49.50
2019-02-20T07:43:07.519Z,45.38
2019-02-20T07:45:37.026Z,48.80
2019-02-20T07:48:06.428Z,47.15
2019-02-20T07:50:35.856Z,48.58
2019-02-20T07:53:05.233Z,42.23
2019-02-20T07:55:34.707Z,42.33
2019-02-20T07:58:04.151Z,47.30
2019-02-20T08:00:33.556Z,43.63
2019-02-20T08:03:02.999Z,49.38
2019-02-20T08:05:32.418Z,42.23
2019-02-20T08:08:01.836Z,40.63
2019-02-20T08:10:31.259Z,38.28
2019-02-20T08:13:00.655Z,45.50
2019-02-20T08:15:30.058Z,41.92
2019-02-20T08:17:59.460Z,51.15
2019-02-20T08:20:28.849Z,43.00
2019-02-20T08:22:58.271Z,43.40
2019-02-20T08:25:27.665Z,37.33
2019-02-20T08:27:57.076Z,39.38
2019-02-20T08:30:26.514Z,42.40
2019-02-20T08:32:55.947Z,42.48
2019-02-20T08:35:25.431Z,43.55
2019-02-20T08:37:54.863Z,36.80
2019-02-20T08:40:24.275Z,36.95
2019-02-20T08:42:53.755Z,44.33
2019-02-20T08:45:23.159Z,37.55
2019-02-20T08:47:52.580Z,37.85
2019-02-20T08:50:21.977Z,42.30
2019-02-20T08:52:51.379Z,37.25
2019-02-20T08:55:20.810Z,34.58
2019-02-20T08:57:50.277Z,42.45
2019-02-20T09:00:21.065Z,42.27
2019-02-20T09:02:50.497Z,39.92
2019-02-20T09:05:19.925Z,37.20
2019-02-20T09:07:49.473Z,36.45
2019-02-20T09:10:18.885Z,39.80
2019-02-20T09:12:48.290Z,36.38
2019-02-20T09:15:17.723Z,36.70
2019-02-20T09:17:47.116Z,33.45
2019-02-20T09:20:16.535Z,40.03
2019-02-20T09:22:45.931Z,29.50
2019-02-20T09:25:19.802Z,36.38
2019-02-20T09:27:46.423Z,31.82
2019-02-20T09:30:16.085Z,33.35
2019-02-20T09:32:45.487Z,33.55
2019-02-20T09:35:14.881Z,31.97
2019-02-20T09:37:44.300Z,32.95
2019-02-20T09:40:17.840Z,30.60
2019-02-20T09:42:51.929Z,33.78
2019-02-20T09:45:21.302Z,32.75
2019-02-20T09:47:50.695Z,35.23
2019-02-20T09:50:20.102Z,37.53
2019-02-20T09:52:52.469Z,31.17
2019-02-20T09:55:20.570Z,29.15
2019-02-20T09:57:50.073Z,33.20
2019-02-20T10:00:19.909Z,35.28
2019-02-20T10:02:49.335Z,34.23
2019-02-20T10:05:19.212Z,25.50
2019-02-20T10:07:48.649Z,32.15
2019-02-20T10:10:18.089Z,32.15
2019-02-20T10:12:47.483Z,28.57
2019-02-20T10:15:18.802Z,30.65
2019-02-20T10:17:48.187Z,28.40
2019-02-20T10:20:17.593Z,26.85
2019-02-20T10:22:47.061Z,30.85
2019-02-20T10:25:16.478Z,28.35
2019-02-20T10:27:45.871Z,29.82
2019-02-20T10:30:17.578Z,28.10
2019-02-20T10:32:46.986Z,33.18
2019-02-20T10:35:16.382Z,34.30
2019-02-20T10:37:45.816Z,28.92
2019-02-20T10:40:15.224Z,32.50
2019-02-20T10:42:44.643Z,31.90
2019-02-20T10:45:14.307Z,27.00
2019-02-20T10:47:43.743Z,29.67
2019-02-20T10:50:14.159Z,27.70
2019-02-20T10:52:43.676Z,25.80
2019-02-20T10:55:13.074Z,28.98
2019-02-20T10:57:42.480Z,26.40
2019-02-20T11:00:24.050Z,26.73
2019-02-20T11:02:48.358Z,29.25
2019-02-20T11:05:17.774Z,26.48
2019-02-20T11:07:48.407Z,30.90
2019-02-20T11:10:17.822Z,27.42
2019-02-20T11:12:47.221Z,26.68
2019-02-20T11:15:16.726Z,25.25
2019-02-20T11:17:46.189Z,29.75
2019-02-20T11:20:15.659Z,36.60
2019-02-20T11:22:45.101Z,25.43
2019-02-20T11:25:14.734Z,25.30
2019-02-20T11:27:44.342Z,29.80
2019-02-20T11:30:22.752Z,26.00
2019-02-20T11:32:52.262Z,29.87
2019-02-20T11:35:21.735Z,31.73
2019-02-20T11:37:51.150Z,29.72
2019-02-20T11:40:20.616Z,31.75
2019-02-20T11:42:50.150Z,27.62
2019-02-20T11:45:21.331Z,35.13
2019-02-20T11:47:50.731Z,30.25
2019-02-20T11:50:20.194Z,29.95
2019-02-20T11:52:49.604Z,33.20
2019-02-20T11:55:19.016Z,30.35
2019-02-20T11:57:48.431Z,31.95
2019-02-20T12:00:18.769Z,41.80
2019-02-20T12:02:48.168Z,27.13
2019-02-20T12:05:17.781Z,30.17
2019-02-20T12:07:47.219Z,28.25
2019-02-20T12:10:17.611Z,31.37
2019-02-20T12:12:47.007Z,32.80
2019-02-20T12:15:16.404Z,27.70
2019-02-20T12:17:45.804Z,31.95
2019-02-20T12:20:15.225Z,28.75
2019-02-20T12:22:44.632Z,24.37
2019-02-20T12:25:14.117Z,28.77
2019-02-20T12:27:43.475Z,27.00
2019-02-20T12:30:12.878Z,27.00
2019-02-20T12:32:42.288Z,23.92
2019-02-20T12:35:11.704Z,25.08
2019-02-20T12:37:41.114Z,25.55
2019-02-20T12:40:10.997Z,23.50
2019-02-20T12:42:41.937Z,24.77
2019-02-20T12:45:11.471Z,22.20
2019-02-20T12:47:40.898Z,25.95
2019-02-20T12:50:12.138Z,26.55
2019-02-20T12:52:41.601Z,21.82
2019-02-20T12:55:11.085Z,21.73
2019-02-20T12:57:40.556Z,21.35
2019-02-20T13:00:15.632Z,19.05
2019-02-20T13:02:45.053Z,19.67
2019-02-20T13:05:14.504Z,15.08
2019-02-20T13:07:43.966Z,16.73
2019-02-20T13:10:13.410Z,22.77
2019-02-20T13:12:43.091Z,16.48
2019-02-20T13:15:12.491Z,15.75
2019-02-20T13:17:41.928Z,17.50
2019-02-20T13:20:11.801Z,17.92
2019-02-20T13:22:41.202Z,14.18
2019-02-20T13:25:10.694Z,22.82
2019-02-20T13:27:40.339Z,14.43
2019-02-20T13:30:12.320Z,17.75
2019-02-20T13:32:41.744Z,18.37
2019-02-20T13:35:11.207Z,18.05
2019-02-20T13:37:40.661Z,15.45
2019-02-20T13:40:10.699Z,16.50
2019-02-20T13:42:40.115Z,14.53
2019-02-20T13:45:09.676Z,15.23
2019-02-20T13:47:40.418Z,20.37
2019-02-20T13:50:11.873Z,15.32
2019-02-20T13:52:41.451Z,13.00
2019-02-20T13:55:10.879Z,18.27
2019-02-20T13:57:40.304Z,14.83
2019-02-20T14:00:13.452Z,15.43
2019-02-20T14:02:43.018Z,15.03
2019-02-20T14:05:12.400Z,18.42
2019-02-20T14:07:42.141Z,15.78
2019-02-20T14:10:12.505Z,14.35
2019-02-20T14:12:41.927Z,16.70
2019-02-20T14:15:12.021Z,13.58
2019-02-20T14:17:41.441Z,15.15
2019-02-20T14:20:11.878Z,14.93
2019-02-20T14:22:41.582Z,12.60
2019-02-20T14:25:11.603Z,13.95
2019-02-20T14:27:41.262Z,13.85
2019-02-20T14:30:12.210Z,16.17
2019-02-20T14:32:41.628Z,12.03
2019-02-20T14:35:12.756Z,13.20
2019-02-20T14:37:43.750Z,13.30
2019-02-20T14:40:13.713Z,18.05
2019-02-20T14:42:43.161Z,13.10
2019-02-20T14:45:13.715Z,16.23
2019-02-20T14:47:43.155Z,12.82
2019-02-20T14:50:12.712Z,17.85
2019-02-20T14:52:42.310Z,16.30
2019-02-20T14:55:11.829Z,25.02
2019-02-20T14:57:44.010Z,15.53
2019-02-20T15:00:16.626Z,15.95
2019-02-20T15:02:46.040Z,11.55
2019-02-20T15:05:15.458Z,14.68
2019-02-20T15:07:44.856Z,14.25
2019-02-20T15:10:14.294Z,13.25
2019-02-20T15:12:43.727Z,12.00
2019-02-20T15:15:13.724Z,15.15
2019-02-20T15:17:43.207Z,11.10
2019-02-20T15:20:12.615Z,13.05
2019-02-20T15:22:42.004Z,14.65
2019-02-20T15:25:11.452Z,12.45
2019-02-20T15:27:40.859Z,13.85
2019-02-20T15:30:12.813Z,15.10
2019-02-20T15:32:42.270Z,13.28
2019-02-20T15:35:11.677Z,13.03
2019-02-20T15:37:41.069Z,12.43
2019-02-20T15:40:10.507Z,16.62
2019-02-20T15:42:39.939Z,9.90
2019-02-20T15:45:10.770Z,15.70
2019-02-20T15:47:40.179Z,14.58
2019-02-20T15:50:12.070Z,13.48
2019-02-20T15:52:41.481Z,12.90
2019-02-20T15:55:11.539Z,15.85
2019-02-20T15:57:40.932Z,13.13
2019-02-20T16:00:13.804Z,10.43
2019-02-20T16:02:43.222Z,11.12
2019-02-20T16:05:12.983Z,12.58
2019-02-20T16:07:42.371Z,11.83
2019-02-20T16:10:11.826Z,12.80
2019-02-20T16:12:43.030Z,11.55
2019-02-20T16:15:12.316Z,13.43
2019-02-20T16:17:41.736Z,10.32
2019-02-20T16:20:12.468Z,16.05
2019-02-20T16:22:41.872Z,11.30
2019-02-20T16:25:16.111Z,9.40
2019-02-20T16:27:47.415Z,13.03
2019-02-20T16:30:16.505Z,11.78
2019-02-20T16:32:46.424Z,10.95
2019-02-20T16:35:16.020Z,9.43
2019-02-20T16:37:45.415Z,14.85
2019-02-20T16:40:15.640Z,9.90
2019-02-20T16:42:45.115Z,11.08
2019-02-20T16:45:17.444Z,11.57
2019-02-20T16:47:46.885Z,13.83
2019-02-20T16:50:16.473Z,10.32
2019-02-20T16:52:45.877Z,12.25
2019-02-20T16:55:19.080Z,12.55
2019-02-20T16:57:46.315Z,8.65
2019-02-20T17:00:17.556Z,8.75
2019-02-20T17:02:46.984Z,10.18
2019-02-20T17:05:16.373Z,13.20
2019-02-20T17:07:47.441Z,9.20
2019-02-20T17:10:18.139Z,11.88
2019-02-20T17:12:47.511Z,13.60
2019-02-20T17:15:17.507Z,9.58
2019-02-20T17:17:46.935Z,12.15
2019-02-20T17:20:21.339Z,9.33
2019-02-20T17:22:50.727Z,17.42
2019-02-20T17:25:20.147Z,13.18
2019-02-20T17:27:49.607Z,11.15
2019-02-20T17:30:19.654Z,9.10
2019-02-20T17:32:49.363Z,11.97
2019-02-20T17:35:18.764Z,13.30
2019-02-20T17:37:48.157Z,10.23
2019-02-20T17:40:17.614Z,15.63
2019-02-20T17:42:47.014Z,13.72
2019-02-20T17:45:17.643Z,18.20
2019-02-20T17:47:47.392Z,12.70
2019-02-20T17:50:24.441Z,14.35
2019-02-20T17:52:53.900Z,16.60
2019-02-20T17:55:23.298Z,14.45
2019-02-20T17:57:52.722Z,16.87
2019-02-20T18:04:09.597Z,16.32
2019-02-20T18:06:39.007Z,16.93
2019-02-20T18:09:09.150Z,22.60
2019-02-20T18:11:38.572Z,17.10
2019-02-20T18:14:09.827Z,22.17
2019-02-20T18:16:38.987Z,17.62
2019-02-20T18:19:08.401Z,19.07
2019-02-20T18:21:37.800Z,21.10
2019-02-20T18:24:07.209Z,16.85
2019-02-20T18:26:36.706Z,23.18
2019-02-20T18:29:06.070Z,21.17
2019-02-20T18:31:35.462Z,19.80
2019-02-20T18:34:05.040Z,16.55
2019-02-20T18:36:34.401Z,21.17
2019-02-20T18:39:04.908Z,27.42
2019-02-20T18:41:34.298Z,22.95
2019-02-20T18:44:03.751Z,23.75
2019-02-20T18:46:33.159Z,23.95
2019-02-20T18:49:02.675Z,22.45
2019-02-20T18:51:32.140Z,20.45
2019-02-20T18:54:01.509Z,22.27
2019-02-20T18:56:30.909Z,19.80
2019-02-20T18:59:00.370Z,23.83
2019-02-20T19:01:29.769Z,17.90
2019-02-20T19:03:59.274Z,20.37
2019-02-20T19:06:28.687Z,19.73
2019-02-20T19:08:59.740Z,24.72
2019-02-20T19:11:38.139Z,22.95
2019-02-20T19:14:14.442Z,23.50
2019-02-20T19:16:47.122Z,22.17
2019-02-20T19:19:38.899Z,18.80
2019-02-20T19:22:20.147Z,23.92
2019-02-20T19:24:53.185Z,29.00
2019-02-20T19:27:29.055Z,26.23
2019-02-20T19:30:24.014Z,22.77
2019-02-20T19:32:59.529Z,26.25
2019-02-20T19:35:32.343Z,25.82
2019-02-20T19:38:26.397Z,23.35
2019-02-20T19:40:59.071Z,26.15
2019-02-20T19:43:49.345Z,25.12
2019-02-20T19:46:27.786Z,26.05
2019-02-20T19:49:06.416Z,25.62
2019-02-20T19:51:53.858Z,22.00
2019-02-20T19:54:26.550Z,24.40
2019-02-20T19:56:59.235Z,24.63
2019-02-20T19:59:57.367Z,24.00
2019-02-20T20:02:50.953Z,20.50
2019-02-20T20:05:50.747Z,24.30
2019-02-20T20:08:38.304Z,21.62
2019-02-20T20:11:16.760Z,22.50
2019-02-20T20:14:12.828Z,20.85
2019-02-20T20:16:51.483Z,22.10
2019-02-20T20:19:33.232Z,22.32
2019-02-20T20:22:12.014Z,20.97
2019-02-20T20:24:53.296Z,22.25
2019-02-20T20:27:51.353Z,26.20
2019-02-20T20:30:27.783Z,22.25
2019-02-20T20:33:17.416Z,22.65
2019-02-20T20:35:52.886Z,22.22
2019-02-20T20:38:49.604Z,21.42
2019-02-20T20:41:40.343Z,22.42
2019-02-20T20:44:33.800Z,31.93
2019-02-20T20:47:28.740Z,29.95
2019-02-20T20:50:01.461Z,22.82
2019-02-20T20:52:48.799Z,29.70
2019-02-20T20:55:40.783Z,22.40
2019-02-20T20:58:29.777Z,23.70
2019-02-20T21:01:19.186Z,27.50
2019-02-20T21:04:01.408Z,23.02
2019-02-20T21:06:43.536Z,25.68
2019-02-20T21:09:18.845Z,26.20
2019-02-20T21:11:51.571Z,24.47
2019-02-20T21:14:30.078Z,22.30
2019-02-20T21:17:19.727Z,26.02
2019-02-20T21:20:00.311Z,23.42
2019-02-20T21:22:50.431Z,26.20
2019-02-20T21:25:35.252Z,26.37
2019-02-20T21:28:23.692Z,25.37
2019-02-20T21:31:15.870Z,22.85
2019-02-20T21:34:10.853Z,26.90
2019-02-20T21:36:43.632Z,27.32
2019-02-20T21:39:37.021Z,22.85
2019-02-20T21:42:15.481Z,20.60
2019-02-20T21:44:48.964Z,20.48
2019-02-20T21:47:49.884Z,23.35
2019-02-20T21:50:43.607Z,26.85
2019-02-20T21:53:16.262Z,25.60
2019-02-20T21:56:06.735Z,24.40
2019-02-20T21:58:48.318Z,22.22
2019-02-20T22:01:26.925Z,25.08
2019-02-20T22:04:17.481Z,22.02
2019-02-20T22:06:53.318Z,22.70
2019-02-20T22:09:37.712Z,27.20
2019-02-20T22:12:13.191Z,21.40
2019-02-20T22:14:48.591Z,25.82
2019-02-20T22:17:35.849Z,26.17
2019-02-20T22:20:30.943Z,23.42
2019-02-20T22:23:09.668Z,27.45
2019-02-20T22:26:09.408Z,23.45
2019-02-20T22:28:47.739Z,28.05
2019-02-20T22:31:39.951Z,26.10
2019-02-20T22:34:30.664Z,25.50
2019-02-20T22:37:06.250Z,28.07
2019-02-20T22:39:47.326Z,28.45
2019-02-20T22:42:36.205Z,28.27
2019-02-20T22:45:26.810Z,26.27
2019-02-20T22:48:18.961Z,29.67
2019-02-20T22:51:03.563Z,28.75
2019-02-20T22:53:52.783Z,30.08
2019-02-20T22:56:41.894Z,28.80
2019-02-20T22:59:35.390Z,29.95
2019-02-20T23:02:27.886Z,30.30
2019-02-20T23:05:26.624Z,26.82
2019-02-20T23:08:14.424Z,31.70
2019-02-20T23:10:49.837Z,24.07
2019-02-20T23:13:28.134Z,30.68
2019-02-20T23:15:57.607Z,30.88
2019-02-20T23:18:28.811Z,27.67
2019-02-20T23:20:58.252Z,29.50
2019-02-20T23:23:27.668Z,33.88
2019-02-20T23:25:57.128Z,26.12
2019-02-20T23:28:26.585Z,25.90
2019-02-20T23:30:56.031Z,29.85
2019-02-20T23:33:25.469Z,26.87
2019-02-20T23:35:54.865Z,32.50
2019-02-20T23:38:24.324Z,31.97
2019-02-20T23:40:53.748Z,29.77
2019-02-20T23:43:23.176Z,30.77
2019-02-20T23:45:52.592Z,30.92
2019-02-20T23:48:22.024Z,32.23
2019-02-20T23:50:51.420Z,31.75
2019-02-20T23:53:20.916Z,33.55
2019-02-20T23:55:50.327Z,30.25
2019-02-20T23:58:19.775Z,30.95
